Amber, Oklahoma
Current Conditions -  °F | °C
As of 3:15 AM on Friday 24 Oct 2014 (Local Time) from KRCE Reporting Station
NA  
Wind Chill: 59°   Ceiling: NA
Heat Index: 59°   Visibility: NA
Dew Point: 59°   Wind: 10mph
Humidity: 100%   Direction: 190°S
Pressure: 30.1"   Gusts: NA
Location:  35.16°N, 97.88°W
Report Text: KRCE 240815Z AUTO 19009KT 15/15 A3010 RMK AO2
Loading
Personal Weather Stations






























Interactive Weather Map
Tropical Storm Tracking
New forecast layout! Learn more

10-Day Weather Forecast

Advertisements
Track Severe Weather on mobile